Airfield :
LOGIN :

Register | Disclaimer

   EN    FR    IT 

 










Legend :    VFR   Marginal VFR   IFR   Intensive IFR   Very Intensive IFR
Visi :
Ceiling :
>= 8 km
>= 3000ft
5 to 8 km
1000 to 3000 ft
1500m to 5 km
500 to 1000 ft
800 to 1500m
200 to 500 ft
< 800m
< 200 ft
Symbols :   Thunderstorms  Fog  Heavy snow  Heavy precipitations  Wind > 20 kt
SIGMETs :     Misc.  Thunderstorms  Icing  Turbulence  Mountain Waves  Volcanic Ashes






- Airport Elevation : 1465 ft


LSMP - Payerne

CURRENT METAR :
  • 141350Z AUTO 26008KT 230V290 9999NDV R23/P2000N R05/1400N NCD 27/09 Q1021 RMK

EXPIRED METARs :
  • 141320Z AUTO 25008KT 9999NDV R23/P2000D R05/1400N NCD 27/09 Q1022 RMK
  • 141250Z AUTO 25007KT 9999NDV NCD 26/09 Q1022 RMK
  • 141220Z AUTO 25007KT 9999NDV NCD 26/10 Q1023 RMK
  • 141150Z AUTO 26008KT 230V290 9999NDV NCD 25/10 Q1023 RMK
  • 141120Z AUTO VRB02KT 9999NDV NCD 24/13 Q1023 RMK
  • 141050Z AUTO VRB01KT 9999NDV NCD 23/13 Q1024 RMK
  • 140950Z AUTO VRB01KT 9999NDV NCD 21/12 Q1024 RMK
  • 140920Z AUTO 00000KT 9999NDV NCD 20/11 Q1025 RMK

Expired Forecast.



MET'MAP, your aeronautical weather chart ! - Copyright ORBIFLY December 2007 - Disclaimer

ORBIFLY MET'MAP TEAM :

Programming & Development : Alexandra Zaïnal
Original concept : Baudouin d'Aumeries
Technical & hardware support : Manuel Goepfert
Assistance : Marc-Olivier Méhu




SOURCES & CREDITS :

   NOAA